Time;durP1;ratioP1;P1;durP2;ratioP2;P2;SDS_P1;SDS_P2;PMS_P1;PMS_P2;Temp;Humidity;BMP_temperature;BMP_pressure;BME280_temperature;BME280_humidity;BME280_pressure;Samples;Min_cycle;Max_cycle;Signal;HPM_P1;HPM_P2
2023/06/07 00:02:22;;;;;;;;;;;;;;;14.79;57.68;96783.03;5001639;28;19914;-88
2023/06/07 00:05:08;;;;;;;;;;;;;;;14.74;57.83;96788.91;5013269;28;19948;-86
2023/06/07 00:07:35;;;;;;;;;;;;;;;14.72;57.62;96787.50;4968881;29;20010;-87
2023/06/07 00:10:05;;;;;;;;;;;;;;;14.69;57.95;96786.06;4968150;29;19950;-85
2023/06/07 00:12:33;;;;;;;;;;;;;;;14.66;57.92;96788.31;4966880;29;19922;-85
2023/06/07 00:15:01;;;;;;;;;;;;;;;14.66;57.74;96783.84;4979677;28;19922;-86
2023/06/07 00:17:29;;;;;;;;;;;;;;;14.68;57.98;96787.09;5003124;28;19922;-85
2023/06/07 00:19:56;;;;;;;;;;;;;;;14.67;57.64;96779.41;5006001;28;19933;-86
2023/06/07 00:22:25;;;;;;;;;;;;;;;14.65;57.60;96777.00;4988683;28;19957;-87
2023/06/07 00:24:53;;;;;;;;;;;;;;;14.60;57.45;96779.41;4997486;28;19921;-86
2023/06/07 00:27:22;;;;;;;;;;;;;;;14.57;57.65;96777.22;5000018;28;19922;-87
2023/06/07 00:29:50;;;;;;;;;;;;;;;14.55;57.00;96776.59;4965390;29;19923;-86
2023/06/07 00:32:17;;;;;;;;;;;;;;;14.54;57.66;96777.56;4984248;28;19922;-84
2023/06/07 00:34:45;;;;;;;;;;;;;;;14.50;57.39;96773.75;4990375;28;19921;-86
2023/06/07 00:37:12;;;;;;;;;;;;;;;14.45;57.85;96765.66;4996936;28;20026;-84
2023/06/07 00:39:40;;;;;;;;;;;;;;;14.42;57.68;96765.03;5002841;28;20592;-84
2023/06/07 00:42:08;;;;;;;;;;;;;;;14.41;57.97;96766.06;5003441;28;19921;-86
2023/06/07 00:44:37;;;;;;;;;;;;;;;14.39;57.71;96768.09;5003192;28;19968;-84
2023/06/07 00:47:05;;;;;;;;;;;;;;;14.38;58.54;96760.41;5000254;28;20302;-86
2023/06/07 00:49:32;;;;;;;;;;;;;;;14.37;58.83;96761.44;5001146;28;19925;-84
2023/06/07 00:52:00;;;;;;;;;;;;;;;14.38;58.18;96760.41;4981632;28;19945;-83
2023/06/07 00:54:28;;;;;;;;;;;;;;;14.36;58.24;96752.72;4984700;28;19922;-87
2023/06/07 00:56:56;;;;;;;;;;;;;;;14.34;58.58;96754.78;4985297;28;19956;-86
2023/06/07 00:59:23;;;;;;;;;;;;;;;14.33;58.34;96750.53;4984776;28;19929;-85
2023/06/07 01:01:53;;;;;;;;;;;;;;;14.34;58.33;96749.53;4984545;28;19922;-84
2023/06/07 01:04:20;;;;;;;;;;;;;;;14.31;58.31;96749.09;4984404;28;19970;-88
2023/06/07 01:06:48;;;;;;;;;;;;;;;14.27;58.52;96748.69;4998287;28;19921;-84
2023/06/07 01:09:16;;;;;;;;;;;;;;;14.24;58.58;96746.47;5000829;28;20396;-84
2023/06/07 01:11:47;;;;;;;;;;;;;;;14.22;58.54;96751.13;5000472;28;19922;-87
2023/06/07 01:14:15;;;;;;;;;;;;;;;14.18;58.65;96755.94;5001215;28;19965;-89
2023/06/07 01:16:44;;;;;;;;;;;;;;;14.16;58.89;96757.16;5000948;28;19953;-85
2023/06/07 01:19:17;;;;;;;;;;;;;;;14.14;59.08;96759.19;5001147;28;19925;-84
2023/06/07 01:21:46;;;;;;;;;;;;;;;14.11;58.77;96752.53;5000885;28;19926;-86
2023/06/07 01:24:18;;;;;;;;;;;;;;;14.15;58.88;96760.81;5000213;28;20380;-86
2023/06/07 01:26:46;;;;;;;;;;;;;;;14.15;58.62;96758.19;5000097;28;19964;-85
2023/06/07 01:29:15;;;;;;;;;;;;;;;14.10;59.05;96753.53;4999877;28;19921;-85
2023/06/07 01:31:44;;;;;;;;;;;;;;;14.06;58.74;96754.94;5000145;28;19928;-85
2023/06/07 01:34:12;;;;;;;;;;;;;;;14.05;59.00;96755.94;5000654;28;19985;-85
2023/06/07 01:36:40;;;;;;;;;;;;;;;14.07;58.64;96753.13;5001806;28;19921;-84
2023/06/07 01:39:08;;;;;;;;;;;;;;;14.09;58.87;96751.91;5001368;28;19959;-83
2023/06/07 01:41:37;;;;;;;;;;;;;;;14.08;58.74;96757.34;5000634;28;19965;-85
2023/06/07 01:44:04;;;;;;;;;;;;;;;14.04;58.74;96743.00;5000864;28;19946;-83
2023/06/07 01:46:33;;;;;;;;;;;;;;;14.00;58.83;96748.66;5001184;28;19999;-83
2023/06/07 01:49:02;;;;;;;;;;;;;;;13.97;58.93;96749.09;5000117;28;20412;-84
2023/06/07 01:51:30;;;;;;;;;;;;;;;13.92;58.91;96748.84;5000529;28;19925;-85
2023/06/07 01:53:58;;;;;;;;;;;;;;;13.89;59.47;96745.84;5000041;28;19933;-86
2023/06/07 01:56:29;;;;;;;;;;;;;;;13.83;59.60;96742.19;5000203;28;19989;-83
2023/06/07 01:59:02;;;;;;;;;;;;;;;13.82;60.40;96737.97;5000346;28;19925;-85
2023/06/07 02:01:33;;;;;;;;;;;;;;;13.84;59.48;96738.56;5002628;28;19929;-87
2023/06/07 02:04:03;;;;;;;;;;;;;;;13.83;59.59;96736.13;5002993;28;20369;-85
2023/06/07 02:06:33;;;;;;;;;;;;;;;13.76;59.49;96730.88;5002460;28;19953;-85
2023/06/07 02:09:02;;;;;;;;;;;;;;;13.70;59.47;96729.03;5001924;28;19921;-85
2023/06/07 02:11:31;;;;;;;;;;;;;;;13.64;59.46;96732.44;5001484;28;19922;-86
2023/06/07 02:14:00;;;;;;;;;;;;;;;13.59;59.65;96731.22;5000248;28;19972;-84
2023/06/07 02:16:32;;;;;;;;;;;;;;;13.56;59.72;96731.63;5000391;28;19965;-85
2023/06/07 02:19:00;;;;;;;;;;;;;;;13.54;59.84;96732.84;4999688;28;19921;-85
2023/06/07 02:21:27;;;;;;;;;;;;;;;13.51;59.97;96730.59;5000102;28;19976;-85
2023/06/07 02:23:55;;;;;;;;;;;;;;;13.49;60.15;96730.81;5000739;28;19928;-84
2023/06/07 02:26:24;;;;;;;;;;;;;;;13.50;60.26;96731.63;5000109;28;20429;-83
2023/06/07 02:28:51;;;;;;;;;;;;;;;13.51;59.56;96734.03;5000735;28;19922;-87
2023/06/07 02:31:21;;;;;;;;;;;;;;;13.54;59.49;96731.03;5000271;28;19929;-84
2023/06/07 02:33:49;;;;;;;;;;;;;;;13.54;59.66;96733.63;5000511;28;19952;-82
2023/06/07 02:36:17;;;;;;;;;;;;;;;13.56;59.42;96736.06;5000065;28;20366;-87
2023/06/07 02:38:45;;;;;;;;;;;;;;;13.55;59.12;96739.69;5000881;28;20283;-83
2023/06/07 02:41:12;;;;;;;;;;;;;;;13.52;59.65;96738.28;5005012;28;19991;-85
2023/06/07 02:43:40;;;;;;;;;;;;;;;13.52;59.46;96737.47;5004108;28;20349;-84
2023/06/07 02:46:07;;;;;;;;;;;;;;;13.47;59.42;96738.06;5004586;28;20016;-86
2023/06/07 02:48:36;;;;;;;;;;;;;;;13.40;59.34;96737.22;5003754;28;19922;-85
2023/06/07 02:51:04;;;;;;;;;;;;;;;13.33;59.56;96741.63;5004111;28;20022;-88
2023/06/07 02:53:31;;;;;;;;;;;;;;;13.28;59.84;96744.84;5004070;28;19922;-83
2023/06/07 02:55:59;;;;;;;;;;;;;;;13.25;59.99;96733.88;5004339;28;19921;-83
2023/06/07 02:58:27;;;;;;;;;;;;;;;13.25;60.28;96733.88;5003745;28;20275;-87
2023/06/07 03:00:55;;;;;;;;;;;;;;;13.23;59.79;96733.28;5004031;28;20405;-84
2023/06/07 03:03:23;;;;;;;;;;;;;;;13.18;60.02;96732.06;5005579;28;19922;-89
2023/06/07 03:05:52;;;;;;;;;;;;;;;13.16;59.57;96731.47;5006816;28;20016;-86
2023/06/07 03:08:20;;;;;;;;;;;;;;;13.13;60.21;96731.03;5006353;28;20289;-89
2023/06/07 03:10:47;;;;;;;;;;;;;;;13.11;60.09;96739.06;5005698;28;19921;-84
2023/06/07 03:13:15;;;;;;;;;;;;;;;13.09;60.67;96740.28;5006109;28;20420;-87
2023/06/07 03:15:45;;;;;;;;;;;;;;;13.07;60.37;96742.28;5006622;28;19926;-86
2023/06/07 03:18:15;;;;;;;;;;;;;;;13.06;60.65;96746.72;5023197;23;19925;-77
2023/06/07 03:20:43;;;;;;;;;;;;;;;13.06;60.67;96746.72;4996553;28;19922;-77
2023/06/07 03:23:12;;;;;;;;;;;;;;;13.07;60.71;96745.69;4996337;28;20020;-77
2023/06/07 03:25:40;;;;;;;;;;;;;;;13.05;60.67;96744.28;4995846;28;19922;-77
2023/06/07 03:28:07;;;;;;;;;;;;;;;13.04;61.21;96748.72;4996292;28;20301;-77
2023/06/07 03:30:34;;;;;;;;;;;;;;;13.04;61.43;96743.47;4996012;28;19922;-77
2023/06/07 03:33:02;;;;;;;;;;;;;;;13.11;61.83;96754.78;4996191;28;19928;-77
2023/06/07 03:35:30;;;;;;;;;;;;;;;13.19;60.35;96752.00;4996285;28;20020;-77
2023/06/07 03:37:58;;;;;;;;;;;;;;;13.23;59.90;96751.63;4998401;28;19929;-77
2023/06/07 03:40:27;;;;;;;;;;;;;;;13.23;60.11;96759.47;5015894;28;19922;-77
2023/06/07 03:42:54;;;;;;;;;;;;;;;13.22;59.98;96750.81;5011709;28;19932;-77
2023/06/07 03:45:22;;;;;;;;;;;;;;;13.19;59.88;96749.41;5010600;28;20068;-77
2023/06/07 03:47:49;;;;;;;;;;;;;;;13.17;60.07;96753.22;5006874;28;19921;-77
2023/06/07 03:50:17;;;;;;;;;;;;;;;13.16;60.70;96765.50;4996985;28;20016;-77
2023/06/07 03:52:44;;;;;;;;;;;;;;;13.13;60.24;96762.47;4996827;28;19992;-77
2023/06/07 03:55:12;;;;;;;;;;;;;;;13.14;61.74;96769.31;4996436;28;19977;-77
2023/06/07 03:57:43;;;;;;;;;;;;;;;13.23;60.72;96777.81;4995985;28;19926;-77
2023/06/07 04:00:14;;;;;;;;;;;;;;;13.25;59.96;96774.03;4995893;28;19945;-77
2023/06/07 04:02:42;;;;;;;;;;;;;;;13.29;60.91;96771.81;4990540;28;20305;-77
2023/06/07 04:05:10;;;;;;;;;;;;;;;13.34;59.98;96769.44;4976141;28;20009;-77
2023/06/07 04:07:40;;;;;;;;;;;;;;;13.33;59.88;96767.81;4991555;28;19922;-76
2023/06/07 04:10:08;;;;;;;;;;;;;;;13.29;60.41;96764.78;4995598;28;19976;-77
2023/06/07 04:12:35;;;;;;;;;;;;;;;13.32;60.70;96767.03;4995262;28;20289;-77
2023/06/07 04:15:05;;;;;;;;;;;;;;;13.40;60.38;96768.66;4995152;28;20386;-76
2023/06/07 04:17:32;;;;;;;;;;;;;;;13.44;61.32;96767.25;4986912;28;20340;-77
2023/06/07 04:19:59;;;;;;;;;;;;;;;13.48;59.99;96771.13;4995117;28;19938;-77
2023/06/07 04:22:27;;;;;;;;;;;;;;;13.50;59.90;96774.34;4979166;28;19945;-77
2023/06/07 04:24:54;;;;;;;;;;;;;;;13.51;60.03;96775.97;4975667;28;19926;-76
2023/06/07 04:27:23;;;;;;;;;;;;;;;13.56;61.71;96772.78;4979303;28;19922;-77
2023/06/07 04:29:53;;;;;;;;;;;;;;;13.60;61.25;96772.19;4985334;28;19921;-76
2023/06/07 04:32:22;;;;;;;;;;;;;;;13.67;61.78;96763.53;4994747;28;19921;-77
2023/06/07 04:34:51;;;;;;;;;;;;;;;13.71;60.49;96762.94;4994598;28;19980;-76
2023/06/07 04:37:19;;;;;;;;;;;;;;;13.77;61.73;96770.03;4994373;28;19921;-77
2023/06/07 04:39:49;;;;;;;;;;;;;;;13.82;60.05;96774.66;4994694;28;20377;-77
2023/06/07 04:42:17;;;;;;;;;;;;;;;13.80;60.36;96769.63;4979983;28;19976;-77
2023/06/07 04:44:45;;;;;;;;;;;;;;;13.88;60.21;96771.22;4975186;28;20433;-76
2023/06/07 04:47:12;;;;;;;;;;;;;;;13.95;59.65;96769.44;4986391;28;19975;-76
2023/06/07 04:49:41;;;;;;;;;;;;;;;14.01;61.06;96770.44;4974902;28;19922;-77
2023/06/07 04:52:12;;;;;;;;;;;;;;;14.10;60.93;96776.31;4986165;28;19980;-77
2023/06/07 04:54:39;;;;;;;;;;;;;;;14.12;59.74;96776.94;4994298;28;19961;-77
2023/06/07 04:57:08;;;;;;;;;;;;;;;14.12;61.13;96777.72;4977024;28;20275;-77
2023/06/07 04:59:42;;;;;;;;;;;;;;;14.18;61.05;96776.13;4974708;28;19973;-77
2023/06/07 05:02:10;;;;;;;;;;;;;;;14.30;60.60;96776.34;4991461;28;19928;-77
2023/06/07 05:04:38;;;;;;;;;;;;;;;14.39;59.61;96767.28;5005422;28;19961;-77
2023/06/07 05:07:08;;;;;;;;;;;;;;;14.52;59.91;96776.94;4991660;28;20402;-77
2023/06/07 05:09:36;;;;;;;;;;;;;;;14.59;59.24;96772.56;4975322;28;19930;-76
2023/06/07 05:12:04;;;;;;;;;;;;;;;14.67;58.99;96777.63;4994254;28;19921;-76
2023/06/07 05:14:32;;;;;;;;;;;;;;;14.72;58.10;96767.31;4980683;28;20384;-77
2023/06/07 05:16:59;;;;;;;;;;;;;;;14.78;58.13;96771.75;4988542;28;20370;-77
2023/06/07 05:19:29;;;;;;;;;;;;;;;14.86;58.17;96780.41;4993674;28;19922;-78
2023/06/07 05:21:56;;;;;;;;;;;;;;;14.91;58.07;96780.59;4986364;28;19926;-77
2023/06/07 05:24:26;;;;;;;;;;;;;;;14.94;58.03;96774.94;4975630;28;19938;-77
2023/06/07 05:26:53;;;;;;;;;;;;;;;14.99;58.29;96775.13;4992072;28;19958;-78
2023/06/07 05:29:21;;;;;;;;;;;;;;;15.02;57.54;96775.53;4993622;28;19922;-77
2023/06/07 05:31:49;;;;;;;;;;;;;;;15.05;57.07;96774.31;4991211;28;19937;-77
2023/06/07 05:34:16;;;;;;;;;;;;;;;15.05;57.68;96771.69;4988987;28;19925;-77
2023/06/07 05:36:44;;;;;;;;;;;;;;;15.08;58.30;96775.72;4991978;28;20427;-78
2023/06/07 05:39:12;;;;;;;;;;;;;;;15.11;57.54;96770.88;5001534;28;19922;-77
2023/06/07 05:41:41;;;;;;;;;;;;;;;15.13;58.24;96770.66;4992398;28;19922;-77
2023/06/07 05:44:08;;;;;;;;;;;;;;;15.09;58.20;96770.28;4992707;28;20389;-77
2023/06/07 05:46:35;;;;;;;;;;;;;;;15.04;58.35;96767.44;4984834;28;19982;-77
2023/06/07 05:49:03;;;;;;;;;;;;;;;15.07;58.79;96774.13;4996506;28;20441;-80
2023/06/07 05:51:31;;;;;;;;;;;;;;;15.12;59.68;96772.47;4998096;28;19925;-81
2023/06/07 05:53:58;;;;;;;;;;;;;;;15.18;59.61;96770.84;4994942;28;20001;-78
2023/06/07 05:56:27;;;;;;;;;;;;;;;15.21;59.13;96773.84;4992485;28;19972;-78
2023/06/07 05:58:56;;;;;;;;;;;;;;;15.25;59.70;96772.44;4986286;28;19930;-77
2023/06/07 06:01:24;;;;;;;;;;;;;;;15.33;59.55;96768.78;4988761;28;20313;-78
2023/06/07 06:03:51;;;;;;;;;;;;;;;15.45;58.68;96779.44;4981469;28;19934;-78
2023/06/07 06:06:19;;;;;;;;;;;;;;;15.58;58.40;96782.03;4991588;28;20027;-78
2023/06/07 06:08:46;;;;;;;;;;;;;;;15.74;58.17;96777.34;4978736;28;19949;-79
2023/06/07 06:11:14;;;;;;;;;;;;;;;15.89;58.85;96777.84;4982310;28;20342;-78
2023/06/07 06:13:42;;;;;;;;;;;;;;;15.99;58.18;96774.78;4986069;28;19934;-78
2023/06/07 06:16:10;;;;;;;;;;;;;;;16.09;57.93;96772.47;4986832;28;19928;-78
2023/06/07 06:18:40;;;;;;;;;;;;;;;16.22;58.83;96782.94;4991480;28;19922;-78
2023/06/07 06:21:07;;;;;;;;;;;;;;;16.26;58.47;96788.56;4981957;28;19964;-78
2023/06/07 06:23:35;;;;;;;;;;;;;;;16.28;58.66;96791.78;4991215;28;19921;-77
2023/06/07 06:26:03;;;;;;;;;;;;;;;16.34;58.72;96782.25;4985475;28;19921;-77
2023/06/07 06:28:30;;;;;;;;;;;;;;;16.42;58.34;96785.44;4982277;28;19921;-78
2023/06/07 06:30:59;;;;;;;;;;;;;;;16.50;57.79;96780.91;5003161;28;20015;-78
2023/06/07 06:33:29;;;;;;;;;;;;;;;16.56;57.67;96772.97;4983563;28;19944;-79
2023/06/07 06:35:57;;;;;;;;;;;;;;;16.65;57.79;96776.94;4984982;28;19941;-78
2023/06/07 06:38:24;;;;;;;;;;;;;;;16.72;58.54;96778.69;4992535;28;19972;-80
2023/06/07 06:40:52;;;;;;;;;;;;;;;16.74;58.45;96782.72;4990040;28;19976;-79
2023/06/07 06:43:19;;;;;;;;;;;;;;;16.78;58.05;96769.94;4997401;28;20337;-80
2023/06/07 06:45:47;;;;;;;;;;;;;;;16.84;58.18;96784.91;4990518;28;19976;-78
2023/06/07 06:48:14;;;;;;;;;;;;;;;16.91;58.68;96784.84;4983213;28;20357;-77
2023/06/07 06:50:46;;;;;;;;;;;;;;;16.97;58.06;96778.72;4979985;28;19936;-78
2023/06/07 06:53:14;;;;;;;;;;;;;;;17.05;59.28;96781.06;4976857;28;20295;-79
2023/06/07 06:55:41;;;;;;;;;;;;;;;17.12;59.04;96776.53;4979564;28;19921;-78
2023/06/07 06:58:09;;;;;;;;;;;;;;;17.20;59.66;96778.88;4984764;28;19922;-79
2023/06/07 07:00:38;;;;;;;;;;;;;;;17.25;58.03;96776.41;4991839;28;19968;-79
2023/06/07 07:03:05;;;;;;;;;;;;;;;17.34;59.42;96776.09;4989825;28;19922;-77
2023/06/07 07:05:33;;;;;;;;;;;;;;;17.39;59.38;96768.34;4995003;28;19925;-77
2023/06/07 07:08:02;;;;;;;;;;;;;;;17.46;58.99;96774.34;4996880;28;19972;-78
2023/06/07 07:10:30;;;;;;;;;;;;;;;17.56;57.98;96786.97;4996885;28;19922;-78
2023/06/07 07:12:57;;;;;;;;;;;;;;;17.66;58.00;96782.78;4996444;28;19926;-80
2023/06/07 07:15:27;;;;;;;;;;;;;;;17.76;58.68;96781.50;4985372;28;20008;-78
2023/06/07 07:17:54;;;;;;;;;;;;;;;17.84;57.95;96783.81;4994845;28;19937;-78
2023/06/07 07:20:22;;;;;;;;;;;;;;;17.91;58.73;96784.56;4979858;28;19938;-78
2023/06/07 07:22:50;;;;;;;;;;;;;;;17.96;58.35;96786.53;4978946;28;19977;-77
2023/06/07 07:25:19;;;;;;;;;;;;;;;18.06;57.87;96792.06;4986510;28;19926;-78
2023/06/07 07:27:46;;;;;;;;;;;;;;;18.16;57.00;96781.75;4975974;28;20378;-78
2023/06/07 07:30:15;;;;;;;;;;;;;;;18.27;56.42;96777.56;4981181;28;19921;-78
2023/06/07 07:32:42;;;;;;;;;;;;;;;18.39;56.96;96781.03;4987510;28;19922;-78
2023/06/07 07:35:10;;;;;;;;;;;;;;;18.51;57.34;96789.75;4979178;28;20452;-78
2023/06/07 07:37:39;;;;;;;;;;;;;;;18.65;56.10;96786.91;4976436;28;20373;-78
2023/06/07 07:40:08;;;;;;;;;;;;;;;18.77;55.30;96779.81;4987963;28;19929;-78
2023/06/07 07:42:37;;;;;;;;;;;;;;;18.89;54.96;96785.94;4987914;28;19922;-78
2023/06/07 07:45:06;;;;;;;;;;;;;;;19.01;54.88;96782.47;4989606;28;19945;-78
2023/06/07 07:47:34;;;;;;;;;;;;;;;19.12;54.33;96786.97;4977695;28;19922;-78
2023/06/07 07:50:04;;;;;;;;;;;;;;;19.20;54.40;96786.59;4983710;28;20289;-77
2023/06/07 07:52:32;;;;;;;;;;;;;;;19.30;53.87;96792.09;4995688;28;19926;-78
2023/06/07 07:54:59;;;;;;;;;;;;;;;19.40;53.84;96786.22;4995220;28;19976;-79
2023/06/07 07:57:27;;;;;;;;;;;;;;;19.51;54.06;96787.25;4994915;28;20016;-78
2023/06/07 07:59:56;;;;;;;;;;;;;;;19.59;53.75;96797.47;4976315;28;20342;-78
2023/06/07 08:02:23;;;;;;;;;;;;;;;19.71;53.54;96784.22;4995010;28;20286;-77
2023/06/07 08:04:53;;;;;;;;;;;;;;;19.84;53.00;96786.59;4987546;28;19977;-77
2023/06/07 08:07:21;;;;;;;;;;;;;;;19.98;52.76;96794.25;4976469;28;20369;-77
2023/06/07 08:09:48;;;;;;;;;;;;;;;20.07;52.30;96791.00;4980979;28;19937;-77
2023/06/07 08:12:16;;;;;;;;;;;;;;;20.19;52.08;96788.28;4992915;28;20011;-78
2023/06/07 08:14:44;;;;;;;;;;;;;;;20.30;52.02;96781.31;4986206;28;20037;-78
2023/06/07 08:17:12;;;;;;;;;;;;;;;20.40;51.67;96784.16;4992898;28;19922;-79
2023/06/07 08:19:40;;;;;;;;;;;;;;;20.52;51.52;96790.16;4988626;28;19929;-80
2023/06/07 08:22:07;;;;;;;;;;;;;;;20.61;52.28;96781.84;4976398;28;19976;-78
2023/06/07 08:24:35;;;;;;;;;;;;;;;20.69;51.80;96784.91;4975115;28;19976;-78
2023/06/07 08:27:03;;;;;;;;;;;;;;;20.76;51.29;96787.38;4975138;28;19922;-78
2023/06/07 08:29:30;;;;;;;;;;;;;;;20.83;50.95;96782.72;4975226;28;20323;-78
2023/06/07 08:31:58;;;;;;;;;;;;;;;20.88;51.21;96779.31;4975326;28;19926;-78
2023/06/07 08:34:28;;;;;;;;;;;;;;;20.95;50.77;96777.34;4977128;28;20374;-78
2023/06/07 08:37:00;;;;;;;;;;;;;;;21.06;50.61;96776.41;4994059;28;19977;-78
2023/06/07 08:39:27;;;;;;;;;;;;;;;21.15;50.34;96774.94;4994645;28;20370;-79
2023/06/07 08:41:55;;;;;;;;;;;;;;;21.21;50.41;96773.19;4994550;28;19921;-78
2023/06/07 08:44:22;;;;;;;;;;;;;;;21.28;49.91;96784.41;4993669;28;19922;-78
2023/06/07 08:46:50;;;;;;;;;;;;;;;21.28;49.51;96779.09;4976295;28;20421;-78
2023/06/07 08:49:18;;;;;;;;;;;;;;;21.25;49.26;96774.28;4974896;28;19965;-77
2023/06/07 08:51:47;;;;;;;;;;;;;;;21.28;49.61;96779.09;4975843;28;19922;-77
2023/06/07 08:54:18;;;;;;;;;;;;;;;21.35;49.60;96773.63;4994493;28;20028;-79
2023/06/07 08:56:45;;;;;;;;;;;;;;;21.40;48.83;96782.44;4992697;28;19993;-78
2023/06/07 08:59:14;;;;;;;;;;;;;;;21.39;48.87;96777.38;4992122;28;19928;-78
2023/06/07 09:01:42;;;;;;;;;;;;;;;21.44;48.57;96779.31;4984496;28;19969;-78
2023/06/07 09:04:10;;;;;;;;;;;;;;;21.49;47.96;96782.81;4976262;28;19922;-77
2023/06/07 09:06:39;;;;;;;;;;;;;;;21.58;47.75;96777.88;4991364;28;20370;-78
2023/06/07 09:09:08;;;;;;;;;;;;;;;21.65;48.11;96767.13;4991902;28;19929;-78
2023/06/07 09:11:35;;;;;;;;;;;;;;;21.76;47.67;96766.97;4994728;28;19925;-78
2023/06/07 09:14:03;;;;;;;;;;;;;;;21.86;47.49;96771.56;4990092;28;19922;-78
2023/06/07 09:16:30;;;;;;;;;;;;;;;21.96;46.89;96773.53;4978052;28;19992;-77
2023/06/07 09:21:40;;;;;;;;;;;;;;;22.13;47.36;96776.91;5881264;23;19921;-87
2023/06/07 09:24:09;;;;;;;;;;;;;;;22.23;47.21;96772.75;5001351;28;19922;-90
2023/06/07 09:26:38;;;;;;;;;;;;;;;22.31;46.72;96767.78;5001445;28;19926;-87
2023/06/07 09:31:51;;;;;;;;;;;;;;;22.51;46.53;96771.69;4999933;28;19945;-88
2023/06/07 09:34:21;;;;;;;;;;;;;;;22.59;46.12;96771.22;5001155;28;19926;-89
2023/06/07 09:36:49;;;;;;;;;;;;;;;22.65;45.89;96770.19;4997664;28;19922;-87
2023/06/07 09:39:23;;;;;;;;;;;;;;;22.76;45.74;96768.41;4980201;28;20360;-86
2023/06/07 09:41:52;;;;;;;;;;;;;;;22.83;45.79;96771.66;4984178;28;20429;-86
2023/06/07 09:44:23;;;;;;;;;;;;;;;22.92;45.29;96769.31;4979089;28;20021;-87
2023/06/07 09:46:51;;;;;;;;;;;;;;;23.02;44.76;96767.56;4993214;28;19922;-88
2023/06/07 09:49:28;;;;;;;;;;;;;;;23.14;45.08;96767.34;4987184;28;20050;-85
2023/06/07 09:51:56;;;;;;;;;;;;;;;23.27;44.69;96768.75;4978343;28;19925;-87
2023/06/07 09:54:39;;;;;;;;;;;;;;;23.35;44.67;96764.78;4977727;28;19922;-87
2023/06/07 09:57:09;;;;;;;;;;;;;;;23.42;44.63;96765.38;4984785;28;20439;-88
2023/06/07 09:59:39;;;;;;;;;;;;;;;23.49;44.53;96760.59;4996893;28;19926;-84
2023/06/07 10:02:26;;;;;;;;;;;;;;;23.55;44.43;96756.06;4984042;28;19992;-88
2023/06/07 10:04:56;;;;;;;;;;;;;;;23.63;44.06;96752.91;4977402;28;19977;-87
2023/06/07 10:07:28;;;;;;;;;;;;;;;23.70;43.96;96756.13;4981859;28;19929;-90
2023/06/07 10:09:58;;;;;;;;;;;;;;;23.75;43.18;96753.53;4983326;28;19953;-89
2023/06/07 10:12:28;;;;;;;;;;;;;;;23.80;43.26;96756.19;4998185;28;19921;-87
2023/06/07 10:14:57;;;;;;;;;;;;;;;23.85;43.01;96755.41;4995262;28;19973;-88
2023/06/07 10:17:32;;;;;;;;;;;;;;;23.85;42.83;96761.53;4996633;28;20370;-90
2023/06/07 10:20:00;;;;;;;;;;;;;;;23.88;42.89;96749.56;4990704;28;19922;-90
2023/06/07 10:22:33;;;;;;;;;;;;;;;23.99;43.30;96750.38;4979789;28;19941;-89
2023/06/07 10:27:51;;;;;;;;;;;;;;;24.35;42.77;96748.53;4998996;28;20021;-88
2023/06/07 10:30:20;;;;;;;;;;;;;;;24.44;42.03;96751.47;5000799;28;19922;-83
2023/06/07 10:32:48;;;;;;;;;;;;;;;24.39;41.46;96748.81;4990378;28;19910;-84
2023/06/07 10:35:16;;;;;;;;;;;;;;;24.28;42.04;96748.00;5001683;28;19945;-85
2023/06/07 10:37:44;;;;;;;;;;;;;;;24.29;42.23;96749.59;5013313;28;19921;-83
2023/06/07 10:40:14;;;;;;;;;;;;;;;24.34;41.85;96740.81;5007576;28;19977;-85
2023/06/07 10:42:43;;;;;;;;;;;;;;;24.40;40.72;96747.72;5003135;28;19969;-83
2023/06/07 10:45:15;;;;;;;;;;;;;;;24.35;41.15;96747.75;5001811;28;19922;-85
2023/06/07 10:47:43;;;;;;;;;;;;;;;24.30;41.43;96739.75;4995905;28;19926;-85
2023/06/07 10:50:25;;;;;;;;;;;;;;;24.24;41.87;96742.41;4984661;28;20274;-84
2023/06/07 10:52:56;;;;;;;;;;;;;;;24.22;41.87;96739.19;4999807;28;19922;-85
2023/06/07 10:55:25;;;;;;;;;;;;;;;24.32;41.44;96740.28;5002187;28;19922;-85
2023/06/07 10:57:53;;;;;;;;;;;;;;;24.35;41.09;96737.88;4993265;28;19953;-88
2023/06/07 11:00:28;;;;;;;;;;;;;;;24.36;41.09;96733.34;4989760;28;19922;-82
2023/06/07 11:03:16;;;;;;;;;;;;;;;24.46;40.78;96739.47;4997515;28;19926;-86
2023/06/07 11:06:03;;;;;;;;;;;;;;;24.57;40.97;96744.84;4986244;28;19973;-85
2023/06/07 11:08:32;;;;;;;;;;;;;;;24.65;40.91;96734.44;4985518;28;20013;-85
2023/06/07 11:11:00;;;;;;;;;;;;;;;24.73;40.46;96730.44;4986394;28;19976;-87
2023/06/07 11:13:52;;;;;;;;;;;;;;;24.76;40.15;96732.53;4986860;28;20013;-83
2023/06/07 11:16:37;;;;;;;;;;;;;;;24.74;40.14;96733.88;4985345;28;19922;-83
2023/06/07 11:19:08;;;;;;;;;;;;;;;24.78;40.42;96734.94;4986810;28;19922;-86
2023/06/07 11:21:54;;;;;;;;;;;;;;;24.86;40.16;96731.72;4985023;28;20382;-87
2023/06/07 11:24:22;;;;;;;;;;;;;;;25.01;40.88;96729.00;4985420;28;19922;-84
2023/06/07 11:26:53;;;;;;;;;;;;;;;25.15;40.25;96718.56;4995593;28;20286;-86
2023/06/07 11:29:21;;;;;;;;;;;;;;;25.26;39.75;96720.16;5006946;28;19925;-84
2023/06/07 11:31:56;;;;;;;;;;;;;;;25.35;39.55;96720.41;5005232;28;19921;-83
2023/06/07 11:34:24;;;;;;;;;;;;;;;25.35;39.84;96723.06;4986976;28;19921;-84
2023/06/07 11:37:05;;;;;;;;;;;;;;;25.44;39.73;96721.41;4987579;28;19922;-85
2023/06/07 11:39:33;;;;;;;;;;;;;;;25.53;39.42;96713.63;4997315;28;19926;-83
2023/06/07 11:42:01;;;;;;;;;;;;;;;25.61;38.08;96710.41;4986413;28;19922;-83
2023/06/07 11:44:28;;;;;;;;;;;;;;;25.69;38.32;96717.84;4990535;28;20008;-84
2023/06/07 11:46:59;;;;;;;;;;;;;;;25.73;38.65;96710.03;4986561;28;19928;-84
2023/06/07 11:49:28;;;;;;;;;;;;;;;25.79;38.54;96714.28;5003643;28;19921;-83
2023/06/07 11:51:57;;;;;;;;;;;;;;;25.87;39.00;96710.25;5005324;28;19922;-85
2023/06/07 11:54:25;;;;;;;;;;;;;;;25.90;37.76;96713.19;5001637;28;19922;-81
2023/06/07 11:56:55;;;;;;;;;;;;;;;25.96;38.50;96710.50;4993253;28;19921;-88
2023/06/07 11:59:30;;;;;;;;;;;;;;;26.01;37.86;96707.78;4998591;28;19922;-86
2023/06/07 12:02:05;;;;;;;;;;;;;;;26.04;37.92;96702.69;4999328;28;19977;-86
2023/06/07 12:04:38;;;;;;;;;;;;;;;26.08;36.70;96702.91;4984130;28;19928;-84
2023/06/07 12:07:29;;;;;;;;;;;;;;;26.09;36.67;96702.63;4987890;28;20017;-86
2023/06/07 12:10:05;;;;;;;;;;;;;;;26.08;36.63;96702.91;4989219;28;19995;-86
2023/06/07 12:12:48;;;;;;;;;;;;;;;26.02;37.63;96699.47;4981297;28;19922;-89
2023/06/07 12:15:25;;;;;;;;;;;;;;;26.01;35.48;96691.72;4981861;28;20386;-87
2023/06/07 12:18:02;;;;;;;;;;;;;;;25.97;37.95;96688.03;4982042;28;19973;-85
2023/06/07 12:20:33;;;;;;;;;;;;;;;25.98;37.72;96685.06;4987763;28;19922;-86
2023/06/07 12:23:11;;;;;;;;;;;;;;;25.99;37.42;96688.53;5001072;28;19921;-86
2023/06/07 12:25:41;;;;;;;;;;;;;;;25.96;37.66;96678.41;5001790;28;19949;-88
2023/06/07 12:28:13;;;;;;;;;;;;;;;25.94;37.36;96685.91;5002510;28;19989;-89
2023/06/07 12:30:48;;;;;;;;;;;;;;;25.96;38.21;96678.41;4991460;28;20012;-88
2023/06/07 12:36:11;;;;;;;;;;;;;;;25.95;37.41;96680.28;5005244;28;19976;-88
2023/06/07 12:38:42;;;;;;;;;;;;;;;25.94;36.42;96673.34;4995133;28;19922;-90
2023/06/07 12:41:14;;;;;;;;;;;;;;;25.83;36.70;96669.91;4992625;28;19925;-90
2023/06/07 12:43:45;;;;;;;;;;;;;;;25.77;37.30;96668.34;4989250;28;19985;-90
2023/06/07 12:46:17;;;;;;;;;;;;;;;25.76;37.09;96666.75;4992695;28;20377;-85
2023/06/07 12:48:52;;;;;;;;;;;;;;;25.75;37.13;96669.69;4986155;28;19922;-90
2023/06/07 12:51:22;;;;;;;;;;;;;;;25.73;38.21;96659.28;4984268;28;19984;-90
2023/06/07 12:53:50;;;;;;;;;;;;;;;25.74;37.31;96665.44;4987014;28;19972;-88
2023/06/07 12:56:20;;;;;;;;;;;;;;;25.70;37.75;96657.97;4986911;28;19951;-87
2023/06/07 12:58:49;;;;;;;;;;;;;;;25.68;37.33;96654.00;4985790;28;19922;-88
2023/06/07 13:01:25;;;;;;;;;;;;;;;25.66;37.75;96650.78;5001531;28;19921;-87
2023/06/07 13:03:59;;;;;;;;;;;;;;;25.67;37.77;96650.53;5001209;28;19941;-89
2023/06/07 13:06:30;;;;;;;;;;;;;;;25.77;37.42;96646.19;5001542;28;19922;-90
2023/06/07 13:09:05;;;;;;;;;;;;;;;25.81;37.15;96645.34;5000476;28;19930;-89
2023/06/07 13:11:44;;;;;;;;;;;;;;;25.89;37.43;96642.13;4992572;28;19922;-87